sensor_id;sensor_type;location;lat;lon;timestamp;pressure;altitude;pressure_sealevel;temperature;humidity
75359;BME280;64046;51.978;5.934;2023-06-14T00:00:56;101377.41;;;24.50;30.68
75359;BME280;64046;51.978;5.934;2023-06-14T00:03:29;101374.88;;;24.49;30.58
75359;BME280;64046;51.978;5.934;2023-06-14T00:05:59;101375.91;;;24.28;30.90
75359;BME280;64046;51.978;5.934;2023-06-14T00:08:33;101379.84;;;24.34;30.89
75359;BME280;64046;51.978;5.934;2023-06-14T00:11:06;101382.38;;;24.35;31.14
75359;BME280;64046;51.978;5.934;2023-06-14T00:13:39;101376.63;;;24.21;31.25
75359;BME280;64046;51.978;5.934;2023-06-14T00:16:14;101381.09;;;24.30;30.98
75359;BME280;64046;51.978;5.934;2023-06-14T00:18:46;101382.28;;;24.17;31.44
75359;BME280;64046;51.978;5.934;2023-06-14T00:21:19;101380.41;;;24.28;31.45
75359;BME280;64046;51.978;5.934;2023-06-14T00:23:51;101383.69;;;24.12;31.64
75359;BME280;64046;51.978;5.934;2023-06-14T00:26:20;101383.84;;;24.10;31.55
75359;BME280;64046;51.978;5.934;2023-06-14T00:28:50;101388.06;;;24.03;31.71
75359;BME280;64046;51.978;5.934;2023-06-14T00:31:23;101377.22;;;24.14;31.91
75359;BME280;64046;51.978;5.934;2023-06-14T00:33:54;101386.22;;;24.04;31.94
75359;BME280;64046;51.978;5.934;2023-06-14T00:36:26;101395.97;;;24.14;31.58
75359;BME280;64046;51.978;5.934;2023-06-14T00:38:55;101391.16;;;23.98;31.76
75359;BME280;64046;51.978;5.934;2023-06-14T00:41:25;101393.44;;;23.93;31.82
75359;BME280;64046;51.978;5.934;2023-06-14T00:43:57;101388.22;;;23.92;32.02
75359;BME280;64046;51.978;5.934;2023-06-14T00:46:36;101389.34;;;24.09;31.92
75359;BME280;64046;51.978;5.934;2023-06-14T00:49:07;101389.19;;;23.91;32.14
75359;BME280;64046;51.978;5.934;2023-06-14T00:51:37;101395.09;;;23.84;32.29
75359;BME280;64046;51.978;5.934;2023-06-14T00:54:07;101391.84;;;23.81;32.63
75359;BME280;64046;51.978;5.934;2023-06-14T00:56:37;101392.56;;;23.73;32.29
75359;BME280;64046;51.978;5.934;2023-06-14T00:59:09;101387.19;;;23.73;32.62
75359;BME280;64046;51.978;5.934;2023-06-14T01:01:45;101400.16;;;23.78;32.79
75359;BME280;64046;51.978;5.934;2023-06-14T01:04:17;101393.66;;;23.61;32.53
75359;BME280;64046;51.978;5.934;2023-06-14T01:06:57;101397.34;;;23.79;32.77
75359;BME280;64046;51.978;5.934;2023-06-14T01:09:35;101397.63;;;23.76;32.66
75359;BME280;64046;51.978;5.934;2023-06-14T01:12:13;101400.59;;;23.73;33.12
75359;BME280;64046;51.978;5.934;2023-06-14T01:14:48;101389.44;;;23.58;33.18
75359;BME280;64046;51.978;5.934;2023-06-14T01:17:22;101396.78;;;23.66;33.15
75359;BME280;64046;51.978;5.934;2023-06-14T01:19:53;101397.88;;;23.54;32.87
75359;BME280;64046;51.978;5.934;2023-06-14T01:22:26;101399.59;;;23.64;32.95
75359;BME280;64046;51.978;5.934;2023-06-14T01:24:59;101389.56;;;23.66;32.89
75359;BME280;64046;51.978;5.934;2023-06-14T01:27:36;101385.91;;;23.58;33.10
75359;BME280;64046;51.978;5.934;2023-06-14T01:30:09;101393.94;;;23.58;33.25
75359;BME280;64046;51.978;5.934;2023-06-14T01:32:42;101393.78;;;23.49;33.07
75359;BME280;64046;51.978;5.934;2023-06-14T01:35:12;101395.47;;;23.50;33.45
75359;BME280;64046;51.978;5.934;2023-06-14T01:37:42;101394.19;;;23.45;33.27
75359;BME280;64046;51.978;5.934;2023-06-14T01:40:18;101394.38;;;23.53;33.29
75359;BME280;64046;51.978;5.934;2023-06-14T01:42:53;101397.59;;;23.37;33.85
75359;BME280;64046;51.978;5.934;2023-06-14T01:45:27;101390.56;;;23.46;33.43
75359;BME280;64046;51.978;5.934;2023-06-14T01:47:58;101395.28;;;23.32;33.71
75359;BME280;64046;51.978;5.934;2023-06-14T01:50:43;101394.34;;;23.43;33.48
75359;BME280;64046;51.978;5.934;2023-06-14T01:53:16;101387.41;;;23.31;33.75
75359;BME280;64046;51.978;5.934;2023-06-14T01:55:51;101389.94;;;23.32;33.82
75359;BME280;64046;51.978;5.934;2023-06-14T01:58:25;101388.22;;;23.12;34.15
75359;BME280;64046;51.978;5.934;2023-06-14T02:00:55;101387.09;;;23.14;34.21
75359;BME280;64046;51.978;5.934;2023-06-14T02:03:30;101389.94;;;23.23;34.22
75359;BME280;64046;51.978;5.934;2023-06-14T02:06:00;101385.94;;;23.07;34.07
75359;BME280;64046;51.978;5.934;2023-06-14T02:08:32;101390.16;;;23.10;34.34
75359;BME280;64046;51.978;5.934;2023-06-14T02:11:06;101385.44;;;23.23;34.07
75359;BME280;64046;51.978;5.934;2023-06-14T02:13:38;101389.09;;;23.22;34.48
75359;BME280;64046;51.978;5.934;2023-06-14T02:16:08;101387.94;;;23.15;34.20
75359;BME280;64046;51.978;5.934;2023-06-14T02:18:42;101381.13;;;23.01;34.69
75359;BME280;64046;51.978;5.934;2023-06-14T02:21:12;101388.84;;;22.94;34.72
75359;BME280;64046;51.978;5.934;2023-06-14T02:23:42;101385.56;;;22.91;34.60
75359;BME280;64046;51.978;5.934;2023-06-14T02:26:14;101388.88;;;23.04;34.84
75359;BME280;64046;51.978;5.934;2023-06-14T02:28:43;101384.16;;;22.87;34.63
75359;BME280;64046;51.978;5.934;2023-06-14T02:31:14;101390.34;;;22.87;34.71
75359;BME280;64046;51.978;5.934;2023-06-14T02:33:47;101387.44;;;23.00;34.78
75359;BME280;64046;51.978;5.934;2023-06-14T02:36:20;101383.72;;;22.81;34.66
75359;BME280;64046;51.978;5.934;2023-06-14T02:38:51;101384.69;;;22.80;35.13
75359;BME280;64046;51.978;5.934;2023-06-14T02:41:23;101395.28;;;22.92;35.19
75359;BME280;64046;51.978;5.934;2023-06-14T02:43:53;101392.41;;;22.74;35.33
75359;BME280;64046;51.978;5.934;2023-06-14T02:46:24;101395.34;;;22.71;35.15
75359;BME280;64046;51.978;5.934;2023-06-14T02:48:54;101390.84;;;22.71;35.36
75359;BME280;64046;51.978;5.934;2023-06-14T02:51:27;101395.09;;;22.84;35.00
75359;BME280;64046;51.978;5.934;2023-06-14T02:53:57;101401.69;;;22.70;35.16
75359;BME280;64046;51.978;5.934;2023-06-14T02:56:37;101397.22;;;22.80;35.35
75359;BME280;64046;51.978;5.934;2023-06-14T02:59:09;101411.34;;;22.61;35.24
75359;BME280;64046;51.978;5.934;2023-06-14T03:01:41;101411.56;;;22.58;35.39
75359;BME280;64046;51.978;5.934;2023-06-14T03:04:14;101406.09;;;22.59;35.37
75359;BME280;64046;51.978;5.934;2023-06-14T03:06:45;101420.06;;;22.63;35.35
75359;BME280;64046;51.978;5.934;2023-06-14T03:09:19;101415.13;;;22.58;35.62
75359;BME280;64046;51.978;5.934;2023-06-14T03:11:51;101418.94;;;22.66;35.75
75359;BME280;64046;51.978;5.934;2023-06-14T03:14:27;101414.56;;;22.64;35.78
75359;BME280;64046;51.978;5.934;2023-06-14T03:16:57;101423.63;;;22.52;35.87
75359;BME280;64046;51.978;5.934;2023-06-14T03:19:27;101421.50;;;22.46;35.98
75359;BME280;64046;51.978;5.934;2023-06-14T03:22:01;101423.47;;;22.44;36.14
75359;BME280;64046;51.978;5.934;2023-06-14T03:24:34;101421.22;;;22.49;36.02
75359;BME280;64046;51.978;5.934;2023-06-14T03:27:14;101428.41;;;22.49;36.17
75359;BME280;64046;51.978;5.934;2023-06-14T03:29:47;101437.31;;;22.38;36.37
75359;BME280;64046;51.978;5.934;2023-06-14T03:32:17;101430.78;;;22.30;36.72
75359;BME280;64046;51.978;5.934;2023-06-14T03:34:48;101436.50;;;22.26;36.76
75359;BME280;64046;51.978;5.934;2023-06-14T03:37:32;101435.78;;;22.35;36.50
75359;BME280;64046;51.978;5.934;2023-06-14T03:40:05;101439.03;;;22.27;36.73
75359;BME280;64046;51.978;5.934;2023-06-14T03:42:43;101437.09;;;22.29;36.88
75359;BME280;64046;51.978;5.934;2023-06-14T03:45:17;101436.25;;;22.29;36.98
75359;BME280;64046;51.978;5.934;2023-06-14T03:47:49;101444.56;;;22.15;36.82
75359;BME280;64046;51.978;5.934;2023-06-14T03:50:21;101441.38;;;22.21;37.07
75359;BME280;64046;51.978;5.934;2023-06-14T03:52:52;101446.00;;;22.19;37.05
75359;BME280;64046;51.978;5.934;2023-06-14T03:55:22;101449.50;;;22.19;37.12
75359;BME280;64046;51.978;5.934;2023-06-14T03:57:57;101457.13;;;22.35;36.99
75359;BME280;64046;51.978;5.934;2023-06-14T04:00:31;101450.09;;;22.34;37.20
75359;BME280;64046;51.978;5.934;2023-06-14T04:03:02;101450.59;;;22.28;37.17
75359;BME280;64046;51.978;5.934;2023-06-14T04:05:35;101457.56;;;22.40;37.18
75359;BME280;64046;51.978;5.934;2023-06-14T04:08:09;101453.59;;;22.35;37.05
75359;BME280;64046;51.978;5.934;2023-06-14T04:10:44;101455.84;;;22.18;37.10
75359;BME280;64046;51.978;5.934;2023-06-14T04:13:19;101461.75;;;22.33;37.02
75359;BME280;64046;51.978;5.934;2023-06-14T04:15:48;101469.84;;;22.32;37.22
75359;BME280;64046;51.978;5.934;2023-06-14T04:18:24;101470.09;;;22.40;37.21
75359;BME280;64046;51.978;5.934;2023-06-14T04:20:53;101477.13;;;22.41;36.98
75359;BME280;64046;51.978;5.934;2023-06-14T04:23:23;101472.97;;;22.48;36.80
75359;BME280;64046;51.978;5.934;2023-06-14T04:25:56;101480.66;;;22.62;36.99
75359;BME280;64046;51.978;5.934;2023-06-14T04:28:31;101479.84;;;22.93;36.77
75359;BME280;64046;51.978;5.934;2023-06-14T04:31:11;101483.72;;;23.10;36.43
75359;BME280;64046;51.978;5.934;2023-06-14T04:33:42;101484.84;;;23.07;36.22
75359;BME280;64046;51.978;5.934;2023-06-14T04:36:17;101486.03;;;23.14;36.19
75359;BME280;64046;51.978;5.934;2023-06-14T04:38:49;101489.16;;;23.29;36.07
75359;BME280;64046;51.978;5.934;2023-06-14T04:41:25;101485.66;;;23.29;36.05
75359;BME280;64046;51.978;5.934;2023-06-14T04:44:01;101485.75;;;23.48;35.87
75359;BME280;64046;51.978;5.934;2023-06-14T04:46:40;101493.06;;;23.56;35.96
75359;BME280;64046;51.978;5.934;2023-06-14T04:49:20;101493.75;;;23.48;36.30
75359;BME280;64046;51.978;5.934;2023-06-14T04:51:56;101496.44;;;23.58;35.94
75359;BME280;64046;51.978;5.934;2023-06-14T04:54:42;101496.59;;;23.66;35.88
75359;BME280;64046;51.978;5.934;2023-06-14T04:57:17;101495.75;;;23.56;36.00
75359;BME280;64046;51.978;5.934;2023-06-14T04:59:53;101507.47;;;23.75;35.94
75359;BME280;64046;51.978;5.934;2023-06-14T05:02:26;101496.47;;;23.68;35.94
75359;BME280;64046;51.978;5.934;2023-06-14T05:04:57;101494.91;;;23.65;36.14
75359;BME280;64046;51.978;5.934;2023-06-14T05:07:35;101495.50;;;23.69;36.20
75359;BME280;64046;51.978;5.934;2023-06-14T05:10:07;101500.53;;;23.62;36.17
75359;BME280;64046;51.978;5.934;2023-06-14T05:12:38;101506.84;;;23.52;36.03
75359;BME280;64046;51.978;5.934;2023-06-14T05:15:13;101509.16;;;23.66;36.23
75359;BME280;64046;51.978;5.934;2023-06-14T05:17:44;101505.28;;;23.49;36.19
75359;BME280;64046;51.978;5.934;2023-06-14T05:20:24;101511.06;;;23.44;36.40
75359;BME280;64046;51.978;5.934;2023-06-14T05:22:54;101510.88;;;23.36;36.40
75359;BME280;64046;51.978;5.934;2023-06-14T05:25:29;101519.00;;;23.56;36.32
75359;BME280;64046;51.978;5.934;2023-06-14T05:27:59;101520.91;;;23.44;36.36
75359;BME280;64046;51.978;5.934;2023-06-14T05:30:37;101514.91;;;23.61;36.69
75359;BME280;64046;51.978;5.934;2023-06-14T05:33:11;101513.22;;;23.60;36.52
75359;BME280;64046;51.978;5.934;2023-06-14T05:35:42;101516.59;;;23.62;36.49
75359;BME280;64046;51.978;5.934;2023-06-14T05:38:15;101521.25;;;23.60;36.62
75359;BME280;64046;51.978;5.934;2023-06-14T05:40:44;101534.03;;;23.47;36.82
75359;BME280;64046;51.978;5.934;2023-06-14T05:43:14;101533.03;;;23.48;36.53
75359;BME280;64046;51.978;5.934;2023-06-14T05:45:46;101537.31;;;23.60;36.94
75359;BME280;64046;51.978;5.934;2023-06-14T05:48:23;101531.16;;;23.39;36.98
75359;BME280;64046;51.978;5.934;2023-06-14T05:50:53;101532.31;;;23.46;36.78
75359;BME280;64046;51.978;5.934;2023-06-14T05:53:28;101535.19;;;23.64;36.90
75359;BME280;64046;51.978;5.934;2023-06-14T05:55:59;101536.28;;;23.52;37.00
75359;BME280;64046;51.978;5.934;2023-06-14T05:58:33;101542.34;;;23.54;37.13
75359;BME280;64046;51.978;5.934;2023-06-14T06:01:05;101549.44;;;23.64;36.71
75359;BME280;64046;51.978;5.934;2023-06-14T06:03:37;101550.63;;;23.50;36.95
75359;BME280;64046;51.978;5.934;2023-06-14T06:06:07;101553.31;;;23.50;36.91
75359;BME280;64046;51.978;5.934;2023-06-14T06:08:38;101551.66;;;23.59;36.87
75359;BME280;64046;51.978;5.934;2023-06-14T06:11:15;101558.03;;;23.78;36.89
75359;BME280;64046;51.978;5.934;2023-06-14T06:13:48;101554.53;;;23.77;36.98
75359;BME280;64046;51.978;5.934;2023-06-14T06:16:23;101549.25;;;23.87;36.98
75359;BME280;64046;51.978;5.934;2023-06-14T06:18:57;101561.50;;;23.90;37.12
75359;BME280;64046;51.978;5.934;2023-06-14T06:21:30;101558.69;;;24.01;36.84
75359;BME280;64046;51.978;5.934;2023-06-14T06:24:00;101557.44;;;24.05;36.73
75359;BME280;64046;51.978;5.934;2023-06-14T06:26:34;101564.53;;;24.26;36.38
75359;BME280;64046;51.978;5.934;2023-06-14T06:29:08;101571.00;;;24.43;36.56
75359;BME280;64046;51.978;5.934;2023-06-14T06:31:40;101570.56;;;24.57;36.27
75359;BME280;64046;51.978;5.934;2023-06-14T06:34:14;101562.44;;;24.59;36.04
75359;BME280;64046;51.978;5.934;2023-06-14T06:36:46;101572.47;;;24.66;35.91
75359;BME280;64046;51.978;5.934;2023-06-14T06:39:17;101579.06;;;24.82;35.74
75359;BME280;64046;51.978;5.934;2023-06-14T06:41:52;101577.50;;;24.89;35.82
75359;BME280;64046;51.978;5.934;2023-06-14T06:44:32;101582.56;;;25.12;35.73
75359;BME280;64046;51.978;5.934;2023-06-14T06:47:06;101572.75;;;25.40;35.45
75359;BME280;64046;51.978;5.934;2023-06-14T06:49:40;101577.78;;;25.53;34.84
75359;BME280;64046;51.978;5.934;2023-06-14T06:52:31;101585.47;;;25.38;35.36
75359;BME280;64046;51.978;5.934;2023-06-14T06:55:07;101592.59;;;25.57;35.04
75359;BME280;64046;51.978;5.934;2023-06-14T06:57:38;101591.28;;;25.33;34.89
75359;BME280;64046;51.978;5.934;2023-06-14T07:00:11;101588.59;;;25.24;35.29
75359;BME280;64046;51.978;5.934;2023-06-14T07:02:52;101598.09;;;25.55;34.71
75359;BME280;64046;51.978;5.934;2023-06-14T07:05:21;101601.09;;;25.52;34.95
75359;BME280;64046;51.978;5.934;2023-06-14T07:07:51;101599.81;;;25.56;34.85
75359;BME280;64046;51.978;5.934;2023-06-14T07:10:22;101598.59;;;25.69;34.30
75359;BME280;64046;51.978;5.934;2023-06-14T07:12:52;101605.03;;;25.86;34.37
75359;BME280;64046;51.978;5.934;2023-06-14T07:15:24;101609.38;;;25.97;34.14
75359;BME280;64046;51.978;5.934;2023-06-14T07:17:59;101614.78;;;26.15;34.18
75359;BME280;64046;51.978;5.934;2023-06-14T07:20:29;101609.19;;;26.26;34.02
75359;BME280;64046;51.978;5.934;2023-06-14T07:22:59;101606.50;;;26.26;33.99
75359;BME280;64046;51.978;5.934;2023-06-14T07:25:29;101611.34;;;26.40;33.63
75359;BME280;64046;51.978;5.934;2023-06-14T07:27:59;101610.69;;;26.56;33.57
75359;BME280;64046;51.978;5.934;2023-06-14T07:30:31;101620.81;;;26.81;33.21
75359;BME280;64046;51.978;5.934;2023-06-14T07:33:07;101613.88;;;26.96;32.92
75359;BME280;64046;51.978;5.934;2023-06-14T07:35:38;101606.63;;;26.88;33.13
75359;BME280;64046;51.978;5.934;2023-06-14T07:38:08;101623.41;;;27.08;32.82
75359;BME280;64046;51.978;5.934;2023-06-14T07:40:38;101625.38;;;27.24;32.94
75359;BME280;64046;51.978;5.934;2023-06-14T07:43:09;101643.31;;;27.42;31.68
75359;BME280;64046;51.978;5.934;2023-06-14T07:45:41;101624.00;;;27.20;31.67
75359;BME280;64046;51.978;5.934;2023-06-14T07:48:22;101618.94;;;27.43;31.21
75359;BME280;64046;51.978;5.934;2023-06-14T07:50:56;101623.34;;;27.26;31.27
75359;BME280;64046;51.978;5.934;2023-06-14T07:53:29;101620.63;;;27.44;31.52
75359;BME280;64046;51.978;5.934;2023-06-14T07:56:00;101618.91;;;27.35;31.37
75359;BME280;64046;51.978;5.934;2023-06-14T07:58:30;101634.94;;;27.45;30.98
75359;BME280;64046;51.978;5.934;2023-06-14T08:01:01;101635.16;;;27.52;30.95
75359;BME280;64046;51.978;5.934;2023-06-14T08:03:38;101630.31;;;27.63;30.58
75359;BME280;64046;51.978;5.934;2023-06-14T08:06:15;101630.81;;;27.59;30.28
75359;BME280;64046;51.978;5.934;2023-06-14T08:08:48;101636.84;;;27.53;30.37
75359;BME280;64046;51.978;5.934;2023-06-14T08:11:17;101634.25;;;27.43;30.24
75359;BME280;64046;51.978;5.934;2023-06-14T08:13:51;101625.47;;;27.67;30.27
75359;BME280;64046;51.978;5.934;2023-06-14T08:16:21;101627.63;;;27.63;30.12
75359;BME280;64046;51.978;5.934;2023-06-14T08:18:53;101629.22;;;27.74;29.62
75359;BME280;64046;51.978;5.934;2023-06-14T08:21:27;101624.38;;;27.52;29.69
75359;BME280;64046;51.978;5.934;2023-06-14T08:23:59;101621.19;;;27.56;29.50
75359;BME280;64046;51.978;5.934;2023-06-14T08:26:29;101621.56;;;27.61;29.71
75359;BME280;64046;51.978;5.934;2023-06-14T08:29:01;101619.59;;;27.72;29.95
75359;BME280;64046;51.978;5.934;2023-06-14T08:31:31;101631.78;;;27.84;29.59
75359;BME280;64046;51.978;5.934;2023-06-14T08:34:05;101639.47;;;28.13;29.21
75359;BME280;64046;51.978;5.934;2023-06-14T08:36:35;101637.34;;;27.91;29.40
75359;BME280;64046;51.978;5.934;2023-06-14T08:39:06;101629.72;;;27.78;29.85
75359;BME280;64046;51.978;5.934;2023-06-14T08:41:37;101617.00;;;27.96;29.47
75359;BME280;64046;51.978;5.934;2023-06-14T08:44:08;101630.56;;;28.13;29.67
75359;BME280;64046;51.978;5.934;2023-06-14T08:46:40;101625.50;;;28.18;29.27
75359;BME280;64046;51.978;5.934;2023-06-14T08:49:18;101612.72;;;28.20;29.22
75359;BME280;64046;51.978;5.934;2023-06-14T08:51:57;101627.56;;;28.24;29.06
75359;BME280;64046;51.978;5.934;2023-06-14T08:54:31;101629.06;;;28.27;28.83
75359;BME280;64046;51.978;5.934;2023-06-14T08:57:11;101624.19;;;28.30;28.51
75359;BME280;64046;51.978;5.934;2023-06-14T08:59:46;101618.97;;;28.45;28.80
75359;BME280;64046;51.978;5.934;2023-06-14T09:02:19;101629.25;;;28.34;28.09
75359;BME280;64046;51.978;5.934;2023-06-14T09:04:55;101612.25;;;28.41;28.33
75359;BME280;64046;51.978;5.934;2023-06-14T09:07:30;101610.91;;;28.37;28.48
75359;BME280;64046;51.978;5.934;2023-06-14T09:10:07;101611.97;;;28.69;28.26
75359;BME280;64046;51.978;5.934;2023-06-14T09:12:38;101596.63;;;28.61;28.58
75359;BME280;64046;51.978;5.934;2023-06-14T09:15:10;101608.59;;;28.67;28.51
75359;BME280;64046;51.978;5.934;2023-06-14T09:17:48;101620.06;;;28.77;28.00
75359;BME280;64046;51.978;5.934;2023-06-14T09:20:32;101623.75;;;28.68;27.75
75359;BME280;64046;51.978;5.934;2023-06-14T09:23:06;101620.53;;;28.56;27.58
75359;BME280;64046;51.978;5.934;2023-06-14T09:25:53;101624.94;;;28.65;28.19
75359;BME280;64046;51.978;5.934;2023-06-14T09:28:27;101627.31;;;28.69;28.39
75359;BME280;64046;51.978;5.934;2023-06-14T09:31:00;101623.25;;;28.73;28.28
75359;BME280;64046;51.978;5.934;2023-06-14T09:33:31;101628.31;;;28.68;28.86
75359;BME280;64046;51.978;5.934;2023-06-14T09:36:04;101631.34;;;28.64;28.51
75359;BME280;64046;51.978;5.934;2023-06-14T09:38:44;101639.06;;;28.59;28.72
75359;BME280;64046;51.978;5.934;2023-06-14T09:41:30;101628.81;;;28.71;28.32
75359;BME280;64046;51.978;5.934;2023-06-14T09:44:07;101623.09;;;28.66;28.48
75359;BME280;64046;51.978;5.934;2023-06-14T09:46:38;101627.97;;;28.62;28.52
75359;BME280;64046;51.978;5.934;2023-06-14T09:49:08;101632.72;;;28.69;28.47
75359;BME280;64046;51.978;5.934;2023-06-14T09:51:46;101624.94;;;28.82;28.05
75359;BME280;64046;51.978;5.934;2023-06-14T09:54:23;101622.06;;;28.75;28.27
75359;BME280;64046;51.978;5.934;2023-06-14T09:57:00;101632.19;;;28.65;27.54
75359;BME280;64046;51.978;5.934;2023-06-14T09:59:40;101632.88;;;28.67;27.46
75359;BME280;64046;51.978;5.934;2023-06-14T10:02:21;101624.94;;;28.65;27.10
75359;BME280;64046;51.978;5.934;2023-06-14T10:05:03;101621.56;;;28.63;27.13
75359;BME280;64046;51.978;5.934;2023-06-14T10:07:41;101630.66;;;28.62;27.29
75359;BME280;64046;51.978;5.934;2023-06-14T10:10:14;101626.03;;;28.38;27.63
75359;BME280;64046;51.978;5.934;2023-06-14T10:12:44;101615.09;;;28.40;27.68
75359;BME280;64046;51.978;5.934;2023-06-14T10:15:22;101630.66;;;28.62;27.64
75359;BME280;64046;51.978;5.934;2023-06-14T10:18:04;101619.03;;;28.78;27.60
75359;BME280;64046;51.978;5.934;2023-06-14T10:20:45;101619.19;;;28.77;27.50
75359;BME280;64046;51.978;5.934;2023-06-14T10:23:23;101617.53;;;28.68;27.63
75359;BME280;64046;51.978;5.934;2023-06-14T10:25:59;101618.50;;;28.58;27.46
75359;BME280;64046;51.978;5.934;2023-06-14T10:28:34;101605.19;;;28.57;27.70
75359;BME280;64046;51.978;5.934;2023-06-14T10:31:09;101627.63;;;28.65;28.08
75359;BME280;64046;51.978;5.934;2023-06-14T10:33:49;101623.41;;;28.79;27.77
75359;BME280;64046;51.978;5.934;2023-06-14T10:36:27;101614.81;;;28.84;27.38
75359;BME280;64046;51.978;5.934;2023-06-14T10:39:05;101602.00;;;28.78;27.51
75359;BME280;64046;51.978;5.934;2023-06-14T10:41:41;101615.69;;;28.85;27.27
75359;BME280;64046;51.978;5.934;2023-06-14T10:44:38;101616.66;;;29.08;27.54
75359;BME280;64046;51.978;5.934;2023-06-14T10:47:24;101615.66;;;29.01;26.77
75359;BME280;64046;51.978;5.934;2023-06-14T10:50:06;101615.34;;;28.88;26.33
75359;BME280;64046;51.978;5.934;2023-06-14T10:52:43;101625.09;;;28.64;26.78
75359;BME280;64046;51.978;5.934;2023-06-14T10:55:21;101617.16;;;28.46;26.76
75359;BME280;64046;51.978;5.934;2023-06-14T10:57:54;101632.94;;;28.33;27.14
75359;BME280;64046;51.978;5.934;2023-06-14T11:00:31;101637.84;;;28.29;27.32
75359;BME280;64046;51.978;5.934;2023-06-14T11:06:23;101620.66;;;28.38;27.12
75359;BME280;64046;51.978;5.934;2023-06-14T11:09:25;101628.94;;;28.45;27.24
75359;BME280;64046;51.978;5.934;2023-06-14T11:12:10;101614.78;;;28.43;27.46
75359;BME280;64046;51.978;5.934;2023-06-14T11:14:42;101606.19;;;28.39;27.77
75359;BME280;64046;51.978;5.934;2023-06-14T11:17:17;101630.28;;;28.41;27.33
75359;BME280;64046;51.978;5.934;2023-06-14T11:19:46;101636.31;;;28.26;27.10
75359;BME280;64046;51.978;5.934;2023-06-14T11:22:17;101621.81;;;28.19;26.92
75359;BME280;64046;51.978;5.934;2023-06-14T11:24:48;101618.75;;;28.14;27.44
75359;BME280;64046;51.978;5.934;2023-06-14T11:27:21;101639.34;;;28.23;27.44
75359;BME280;64046;51.978;5.934;2023-06-14T11:29:58;101621.31;;;28.24;27.25
75359;BME280;64046;51.978;5.934;2023-06-14T11:32:31;101617.59;;;28.25;26.85
75359;BME280;64046;51.978;5.934;2023-06-14T11:35:07;101614.25;;;28.39;27.23
75359;BME280;64046;51.978;5.934;2023-06-14T11:37:40;101632.81;;;28.34;27.35
75359;BME280;64046;51.978;5.934;2023-06-14T11:40:11;101614.91;;;28.25;27.43
75359;BME280;64046;51.978;5.934;2023-06-14T11:42:49;101631.91;;;28.25;27.58
75359;BME280;64046;51.978;5.934;2023-06-14T11:45:20;101624.81;;;28.08;27.71
75359;BME280;64046;51.978;5.934;2023-06-14T11:47:53;101627.72;;;28.23;27.84
75359;BME280;64046;51.978;5.934;2023-06-14T11:50:31;101625.00;;;28.14;27.82
75359;BME280;64046;51.978;5.934;2023-06-14T11:53:06;101629.78;;;28.37;27.44
75359;BME280;64046;51.978;5.934;2023-06-14T11:55:46;101624.22;;;28.39;27.82
75359;BME280;64046;51.978;5.934;2023-06-14T11:58:19;101621.69;;;28.37;27.37
75359;BME280;64046;51.978;5.934;2023-06-14T12:00:49;101624.34;;;28.21;27.50
75359;BME280;64046;51.978;5.934;2023-06-14T12:03:22;101632.44;;;28.29;27.50
75359;BME280;64046;51.978;5.934;2023-06-14T12:06:06;101624.72;;;28.34;27.51
75359;BME280;64046;51.978;5.934;2023-06-14T12:08:37;101613.91;;;28.26;27.75
75359;BME280;64046;51.978;5.934;2023-06-14T12:11:18;101626.91;;;28.47;27.58
75359;BME280;64046;51.978;5.934;2023-06-14T12:13:56;101638.88;;;28.36;27.67
75359;BME280;64046;51.978;5.934;2023-06-14T12:16:31;101636.97;;;28.20;27.92
75359;BME280;64046;51.978;5.934;2023-06-14T12:19:12;101632.91;;;28.16;27.74
75359;BME280;64046;51.978;5.934;2023-06-14T12:21:45;101624.47;;;28.03;27.79
75359;BME280;64046;51.978;5.934;2023-06-14T12:24:17;101622.72;;;27.93;27.99
75359;BME280;64046;51.978;5.934;2023-06-14T12:26:48;101615.63;;;27.92;28.56
75359;BME280;64046;51.978;5.934;2023-06-14T12:29:24;101615.22;;;28.13;28.49
75359;BME280;64046;51.978;5.934;2023-06-14T12:31:54;101623.53;;;27.94;28.65
75359;BME280;64046;51.978;5.934;2023-06-14T12:34:28;101614.72;;;28.10;28.58
75359;BME280;64046;51.978;5.934;2023-06-14T12:36:59;101616.06;;;28.14;28.43
75359;BME280;64046;51.978;5.934;2023-06-14T12:39:31;101612.56;;;28.22;28.52
75359;BME280;64046;51.978;5.934;2023-06-14T12:42:03;101623.34;;;28.22;28.67
75359;BME280;64046;51.978;5.934;2023-06-14T12:44:36;101623.16;;;28.23;29.08
75359;BME280;64046;51.978;5.934;2023-06-14T12:47:08;101622.13;;;28.16;29.15
75359;BME280;64046;51.978;5.934;2023-06-14T12:49:42;101614.88;;;28.17;28.65
75359;BME280;64046;51.978;5.934;2023-06-14T12:52:16;101622.44;;;28.05;28.55
75359;BME280;64046;51.978;5.934;2023-06-14T12:54:47;101620.75;;;28.04;28.94
75359;BME280;64046;51.978;5.934;2023-06-14T12:57:17;101622.78;;;28.02;28.93
75359;BME280;64046;51.978;5.934;2023-06-14T12:59:50;101617.94;;;28.22;29.22
75359;BME280;64046;51.978;5.934;2023-06-14T13:02:22;101616.06;;;28.14;29.15
75359;BME280;64046;51.978;5.934;2023-06-14T13:04:59;101616.47;;;28.36;29.06
75359;BME280;64046;51.978;5.934;2023-06-14T13:07:34;101616.94;;;28.23;28.88
75359;BME280;64046;51.978;5.934;2023-06-14T13:10:16;101618.47;;;28.42;28.33
75359;BME280;64046;51.978;5.934;2023-06-14T13:12:47;101618.16;;;28.45;28.39
75359;BME280;64046;51.978;5.934;2023-06-14T13:15:25;101618.66;;;28.57;28.03
75359;BME280;64046;51.978;5.934;2023-06-14T13:17:56;101626.41;;;28.52;28.28
75359;BME280;64046;51.978;5.934;2023-06-14T13:20:28;101617.81;;;28.48;28.29
75359;BME280;64046;51.978;5.934;2023-06-14T13:23:05;101616.34;;;28.70;28.29
75359;BME280;64046;51.978;5.934;2023-06-14T13:25:52;101618.19;;;28.78;27.58
75359;BME280;64046;51.978;5.934;2023-06-14T13:28:25;101626.41;;;28.52;27.59